createdAt,value
2022-10-05T00:01:35.329Z,98488.84
2022-10-05T00:04:15.436Z,98489.91
2022-10-05T00:06:47.063Z,98486.81
2022-10-05T00:09:20.943Z,98491.56
2022-10-05T00:11:53.000Z,98483.03
2022-10-05T00:14:23.660Z,98483.03
2022-10-05T00:16:53.046Z,98487.66
2022-10-05T00:19:25.101Z,98484.59
2022-10-05T00:21:54.590Z,98493.84
2022-10-05T00:24:24.175Z,98494.28
2022-10-05T00:26:57.987Z,98500.03
2022-10-05T00:29:27.881Z,98500.81
2022-10-05T00:31:57.100Z,98497.69
2022-10-05T00:34:26.626Z,98491.38
2022-10-05T00:36:56.085Z,98502.34
2022-10-05T00:39:30.020Z,98506.19
2022-10-05T00:42:25.384Z,98513.41
2022-10-05T00:44:57.939Z,98509.91
2022-10-05T00:47:38.131Z,98503.72
2022-10-05T00:50:29.415Z,98503.06
2022-10-05T00:53:07.558Z,98504.16
2022-10-05T00:55:48.197Z,98497.97
2022-10-05T00:58:26.271Z,98490.59
2022-10-05T01:01:03.496Z,98493.72
2022-10-05T01:03:38.346Z,98496.81
2022-10-05T01:06:14.434Z,98484.44
2022-10-05T01:08:51.493Z,98486.41
2022-10-05T01:11:29.569Z,98482.56
2022-10-05T01:14:09.183Z,98489.16
2022-10-05T01:16:45.996Z,98483.69
2022-10-05T01:19:28.196Z,98489.16
2022-10-05T01:22:05.640Z,98490.34
2022-10-05T01:24:50.353Z,98485.25
2022-10-05T01:27:46.438Z,98480.13
2022-10-05T01:30:20.299Z,98492.13
2022-10-05T01:32:52.796Z,98492.16
2022-10-05T01:35:31.866Z,98489.47
2022-10-05T01:38:09.370Z,98485.69
2022-10-05T01:40:46.183Z,98490.41
2022-10-05T01:43:21.737Z,98491.91
2022-10-05T01:46:00.033Z,98500.81
2022-10-05T01:48:38.875Z,98500.81
2022-10-05T01:51:13.342Z,98497.31
2022-10-05T01:53:51.260Z,98505.03
2022-10-05T01:56:30.872Z,98497.97
2022-10-05T01:59:16.542Z,98487.50
2022-10-05T02:01:51.739Z,98496.69
2022-10-05T02:04:43.624Z,98495.94
2022-10-05T02:07:23.699Z,98493.66
2022-10-05T02:10:00.403Z,98498.41
2022-10-05T02:12:32.686Z,98503.72
2022-10-05T02:15:11.143Z,98507.66
2022-10-05T02:17:44.398Z,98506.78
2022-10-05T02:20:19.285Z,98496.72
2022-10-05T02:22:52.762Z,98485.91
2022-10-05T02:25:24.767Z,98479.16
2022-10-05T02:27:56.464Z,98487.94
2022-10-05T02:30:27.770Z,98475.91
2022-10-05T02:33:02.054Z,98470.53
2022-10-05T02:35:33.402Z,98475.56
2022-10-05T02:38:12.735Z,98484.13
2022-10-05T02:40:56.284Z,98474.22
2022-10-05T02:43:32.260Z,98478.06
2022-10-05T02:46:08.796Z,98465.75
2022-10-05T02:48:44.201Z,98467.19
2022-10-05T02:51:19.778Z,98463.00
2022-10-05T02:54:01.774Z,98474.00
2022-10-05T02:56:36.446Z,98454.81
2022-10-05T02:59:10.468Z,98454.94
2022-10-05T03:01:45.545Z,98458.81
2022-10-05T03:04:22.699Z,98453.09
2022-10-05T03:07:00.415Z,98460.31
2022-10-05T03:09:33.357Z,98462.38
2022-10-05T03:12:24.915Z,98448.34
2022-10-05T03:15:08.448Z,98458.38
2022-10-05T03:17:46.416Z,98449.25
2022-10-05T03:20:23.398Z,98438.56
2022-10-05T03:22:56.928Z,98441.22
2022-10-05T03:25:53.285Z,98437.41
2022-10-05T03:28:29.256Z,98440.63
2022-10-05T03:31:02.178Z,98446.31
2022-10-05T03:33:40.828Z,98442.47
2022-10-05T03:36:19.822Z,98437.88
2022-10-05T03:39:01.935Z,98437.94
2022-10-05T03:41:37.189Z,98436.34
2022-10-05T03:44:19.473Z,98434.78
2022-10-05T03:47:04.288Z,98425.66
2022-10-05T03:49:47.556Z,98417.88
2022-10-05T03:52:23.338Z,98423.53
2022-10-05T03:54:56.299Z,98425.13
2022-10-05T03:57:27.369Z,98424.03
2022-10-05T04:00:02.686Z,98429.03
2022-10-05T04:02:36.920Z,98429.84
2022-10-05T04:05:16.549Z,98424.81
2022-10-05T04:07:49.449Z,98434.59
2022-10-05T04:10:22.879Z,98436.13
2022-10-05T04:12:56.037Z,98429.66
2022-10-05T04:15:31.246Z,98428.59
2022-10-05T04:18:05.288Z,98432.31
2022-10-05T04:20:43.375Z,98425.50
2022-10-05T04:23:18.741Z,98431.31
2022-10-05T04:25:52.105Z,98425.47
2022-10-05T04:28:31.174Z,98427.84
2022-10-05T04:31:02.742Z,98422.81
2022-10-05T04:33:34.245Z,98425.38
2022-10-05T04:36:22.614Z,98422.31
2022-10-05T04:39:04.579Z,98433.78
2022-10-05T04:41:53.539Z,98429.69
2022-10-05T04:44:37.402Z,98428.09
2022-10-05T04:47:19.465Z,98427.75
2022-10-05T04:50:10.514Z,98431.06
2022-10-05T04:52:48.943Z,98424.75
2022-10-05T04:55:26.783Z,98428.06
2022-10-05T04:58:02.409Z,98434.44
2022-10-05T05:00:38.211Z,98429.59
2022-10-05T05:03:23.832Z,98428.16
2022-10-05T05:06:16.391Z,98437.81
2022-10-05T05:09:13.652Z,98442.47
2022-10-05T05:11:50.572Z,98442.84
2022-10-05T05:14:47.270Z,98449.97
2022-10-05T05:17:28.141Z,98448.19
2022-10-05T05:20:08.677Z,98451.25
2022-10-05T05:22:50.430Z,98460.06
2022-10-05T05:25:59.003Z,98457.13
2022-10-05T05:29:44.920Z,98455.25
2022-10-05T05:36:30.571Z,98465.28
2022-10-05T05:42:25.274Z,98460.59
2022-10-05T05:44:56.795Z,98457.75
2022-10-05T05:47:35.353Z,98453.84
2022-10-05T05:50:28.338Z,98455.59
2022-10-05T05:53:12.467Z,98455.72
2022-10-05T05:55:46.628Z,98461.16
2022-10-05T05:58:29.321Z,98460.03
2022-10-05T06:01:01.198Z,98462.38
2022-10-05T06:03:35.912Z,98469.66
2022-10-05T06:06:08.185Z,98472.03
2022-10-05T06:08:50.505Z,98480.63
2022-10-05T06:11:24.881Z,98476.69
2022-10-05T06:13:56.902Z,98479.06
2022-10-05T06:16:33.384Z,98479.78
2022-10-05T06:19:11.252Z,98481.41
2022-10-05T06:21:44.984Z,98474.47
2022-10-05T06:24:19.054Z,98484.13
2022-10-05T06:27:25.023Z,98476.75
2022-10-05T06:30:15.285Z,98475.22
2022-10-05T06:33:04.290Z,98476.28
2022-10-05T06:35:43.367Z,98479.69
2022-10-05T06:38:38.890Z,98477.50
2022-10-05T06:41:20.113Z,98483.75
2022-10-05T06:43:56.570Z,98479.47
2022-10-05T06:46:33.276Z,98482.88
2022-10-05T06:49:18.132Z,98480.78
2022-10-05T06:51:54.714Z,98482.91
2022-10-05T06:54:47.321Z,98482.13
2022-10-05T06:57:33.759Z,98479.44
2022-10-05T07:00:05.583Z,98485.91
2022-10-05T07:02:40.444Z,98477.47
2022-10-05T07:05:41.175Z,98485.28
2022-10-05T07:08:13.512Z,98488.31
2022-10-05T07:10:53.119Z,98493.13
2022-10-05T07:13:46.368Z,98504.69
2022-10-05T07:16:22.422Z,98496.22
2022-10-05T07:19:00.651Z,98503.56
2022-10-05T07:21:35.784Z,98496.91
2022-10-05T07:24:11.570Z,98505.41
2022-10-05T07:26:45.417Z,98505.91
2022-10-05T07:29:23.655Z,98502.03
2022-10-05T07:32:02.785Z,98504.75
2022-10-05T07:34:42.524Z,98495.06
2022-10-05T07:37:32.677Z,98495.06
2022-10-05T07:40:10.421Z,98491.56
2022-10-05T07:42:51.867Z,98489.63
2022-10-05T07:45:29.804Z,98492.72
2022-10-05T07:48:00.818Z,98499.69
2022-10-05T07:50:36.916Z,98505.47
2022-10-05T07:53:12.783Z,98507.06
2022-10-05T07:55:45.316Z,98508.59
2022-10-05T07:58:21.231Z,98508.56
2022-10-05T08:01:06.631Z,98500.00
2022-10-05T08:03:44.910Z,98491.53
2022-10-05T08:06:28.188Z,98496.16
2022-10-05T08:09:01.461Z,98489.22
2022-10-05T08:11:35.161Z,98487.63
2022-10-05T08:14:10.576Z,98484.13
2022-10-05T08:16:41.257Z,98496.94
2022-10-05T08:19:18.574Z,98491.09
2022-10-05T08:21:52.951Z,98499.31
2022-10-05T08:24:35.574Z,98501.59
2022-10-05T08:27:07.788Z,98503.16
2022-10-05T08:29:40.690Z,98497.66
2022-10-05T08:32:15.863Z,98500.06
2022-10-05T08:34:51.359Z,98493.78
2022-10-05T08:37:24.954Z,98505.41
2022-10-05T08:39:57.983Z,98499.13
2022-10-05T08:42:51.531Z,98504.56
2022-10-05T08:45:50.763Z,98502.91
2022-10-05T08:48:50.287Z,98504.56
2022-10-05T08:51:50.053Z,98499.91
2022-10-05T08:54:42.214Z,98506.81
2022-10-05T08:57:48.230Z,98509.50
2022-10-05T09:00:20.373Z,98506.75
2022-10-05T09:03:06.768Z,98505.94
2022-10-05T09:06:05.511Z,98505.44
2022-10-05T09:08:51.501Z,98504.72
2022-10-05T09:11:28.117Z,98499.44
2022-10-05T09:14:12.032Z,98495.69
2022-10-05T09:16:55.788Z,98496.44
2022-10-05T09:20:01.305Z,98493.53
2022-10-05T09:22:38.444Z,98498.56
2022-10-05T09:25:19.777Z,98497.00
2022-10-05T09:27:56.981Z,98497.00
2022-10-05T09:30:47.015Z,98491.84
2022-10-05T09:33:53.220Z,98492.13
2022-10-05T09:36:51.514Z,98489.75
2022-10-05T09:39:32.401Z,98481.84
2022-10-05T09:42:28.934Z,98480.97
2022-10-05T09:45:36.878Z,98484.31
2022-10-05T09:48:55.315Z,98475.97
2022-10-05T09:51:55.140Z,98488.78
2022-10-05T09:55:01.875Z,98483.44
2022-10-05T09:58:03.939Z,98470.59
2022-10-05T10:00:51.491Z,98478.97
2022-10-05T10:04:13.741Z,98473.19
2022-10-05T10:07:07.488Z,98478.44
2022-10-05T10:09:41.574Z,98471.81
2022-10-05T10:12:28.477Z,98473.81
2022-10-05T10:15:33.118Z,98474.34
2022-10-05T10:18:37.608Z,98470.41
2022-10-05T10:21:25.156Z,98470.25
2022-10-05T10:24:28.755Z,98472.34
2022-10-05T10:27:11.482Z,98465.28
2022-10-05T10:30:13.266Z,98459.47
2022-10-05T10:33:17.909Z,98465.31
2022-10-05T10:35:52.372Z,98465.81
2022-10-05T10:38:34.029Z,98463.44
2022-10-05T10:41:31.945Z,98468.66
2022-10-05T10:44:25.285Z,98461.72
2022-10-05T10:47:07.320Z,98458.59
2022-10-05T10:49:47.835Z,98455.63
2022-10-05T10:52:27.870Z,98451.13
2022-10-05T10:55:28.934Z,98452.41
2022-10-05T10:58:33.469Z,98454.38
2022-10-05T11:01:15.325Z,98451.16
2022-10-05T11:04:13.927Z,98453.88
2022-10-05T11:07:19.559Z,98448.56
2022-10-05T11:10:13.424Z,98449.09
2022-10-05T11:13:14.266Z,98449.50
2022-10-05T11:16:15.949Z,98452.50
2022-10-05T11:19:05.388Z,98457.00
2022-10-05T11:21:39.215Z,98440.28
2022-10-05T11:24:44.613Z,98443.38
2022-10-05T11:27:36.286Z,98432.50
2022-10-05T11:30:31.607Z,98430.03
2022-10-05T11:33:31.319Z,98425.31
2022-10-05T11:36:16.569Z,98423.44
2022-10-05T11:39:13.041Z,98419.31
2022-10-05T11:42:25.542Z,98414.75
2022-10-05T11:45:17.619Z,98406.53
2022-10-05T11:48:16.914Z,98412.88
2022-10-05T11:50:55.862Z,98402.44
2022-10-05T11:53:28.683Z,98404.94
2022-10-05T11:56:06.559Z,98403.94
2022-10-05T11:58:38.477Z,98395.00
2022-10-05T12:01:17.168Z,98403.53
2022-10-05T12:03:57.204Z,98402.63
2022-10-05T12:06:42.307Z,98407.44
2022-10-05T12:09:32.604Z,98404.34
2022-10-05T12:12:11.410Z,98413.34
2022-10-05T12:14:49.459Z,98404.06
2022-10-05T12:17:24.447Z,98401.84
2022-10-05T12:19:58.207Z,98397.34
2022-10-05T12:22:33.431Z,98393.03
2022-10-05T12:25:21.733Z,98392.97
2022-10-05T12:27:53.976Z,98395.41
2022-10-05T12:30:30.747Z,98401.88
2022-10-05T12:33:03.866Z,98406.63
2022-10-05T12:35:53.772Z,98397.59
2022-10-05T12:38:28.627Z,98399.75
2022-10-05T12:41:05.754Z,98392.09
2022-10-05T12:43:43.217Z,98395.59
2022-10-05T12:46:19.301Z,98397.13
2022-10-05T12:48:59.232Z,98392.25
2022-10-05T12:51:36.890Z,98386.69
2022-10-05T12:54:16.238Z,98381.53
2022-10-05T12:56:48.872Z,98390.72
2022-10-05T12:59:28.628Z,98390.63
2022-10-05T13:02:06.374Z,98392.69
2022-10-05T13:04:42.916Z,98380.03
2022-10-05T13:07:23.962Z,98383.44
2022-10-05T13:10:01.375Z,98380.38
2022-10-05T13:12:36.697Z,98382.94
2022-10-05T13:15:11.785Z,98377.03
2022-10-05T13:17:45.752Z,98385.91
2022-10-05T13:20:22.224Z,98369.56
2022-10-05T13:22:57.713Z,98379.72
2022-10-05T13:25:32.622Z,98376.25
2022-10-05T13:28:16.564Z,98377.59
2022-10-05T13:30:53.708Z,98383.41
2022-10-05T13:33:28.784Z,98383.03
2022-10-05T13:36:16.859Z,98381.81
2022-10-05T13:38:54.752Z,98389.56
2022-10-05T13:41:36.826Z,98378.19
2022-10-05T13:44:16.180Z,98388.09
2022-10-05T13:46:51.322Z,98378.28
2022-10-05T13:49:29.438Z,98377.41
2022-10-05T13:52:02.652Z,98387.56
2022-10-05T13:54:41.555Z,98372.84
2022-10-05T13:57:21.257Z,98378.22
2022-10-05T13:59:55.341Z,98374.50
2022-10-05T14:02:30.421Z,98375.38
2022-10-05T14:05:04.823Z,98370.78
2022-10-05T14:07:38.121Z,98367.06
2022-10-05T14:10:18.844Z,98374.78
2022-10-05T14:12:56.203Z,98363.34
2022-10-05T14:15:37.309Z,98369.25
2022-10-05T14:18:27.107Z,98358.44
2022-10-05T14:21:18.755Z,98363.63
2022-10-05T14:23:48.031Z,98359.38
2022-10-05T14:26:31.866Z,98366.81
2022-10-05T14:29:05.072Z,98365.47
2022-10-05T14:31:38.057Z,98365.06
2022-10-05T14:34:33.128Z,98364.47
2022-10-05T14:37:10.126Z,98360.38
2022-10-05T14:39:43.701Z,98355.78
2022-10-05T14:42:18.241Z,98351.00
2022-10-05T14:45:00.587Z,98354.25
2022-10-05T14:47:34.388Z,98350.09
2022-10-05T14:50:17.806Z,98354.03
2022-10-05T14:52:59.755Z,98352.19
2022-10-05T14:55:40.140Z,98349.84
2022-10-05T14:58:28.767Z,98341.84
2022-10-05T15:01:05.152Z,98349.66
2022-10-05T15:03:47.777Z,98353.97
2022-10-05T15:06:23.036Z,98347.03
2022-10-05T15:09:17.774Z,98343.75
2022-10-05T15:11:51.753Z,98338.78
2022-10-05T15:14:26.440Z,98342.72
2022-10-05T15:17:01.876Z,98336.38
2022-10-05T15:19:40.965Z,98336.41
2022-10-05T15:22:20.794Z,98332.88
2022-10-05T15:24:59.787Z,98332.09
2022-10-05T15:27:33.676Z,98337.34
2022-10-05T15:30:09.619Z,98331.53
2022-10-05T15:33:01.105Z,98338.47
2022-10-05T15:35:55.675Z,98339.00
2022-10-05T15:38:26.622Z,98332.84
2022-10-05T15:41:11.835Z,98334.69
2022-10-05T15:43:50.406Z,98336.66
2022-10-05T15:46:24.401Z,98336.00
2022-10-05T15:49:02.353Z,98331.59
2022-10-05T15:51:43.565Z,98330.91
2022-10-05T15:54:38.831Z,98330.56
2022-10-05T15:57:12.737Z,98326.16
2022-10-05T15:59:47.362Z,98328.25
2022-10-05T16:02:20.737Z,98324.81
2022-10-05T16:04:59.981Z,98321.50
2022-10-05T16:07:55.202Z,98321.47
2022-10-05T16:10:25.900Z,98330.22
2022-10-05T16:13:06.523Z,98329.44
2022-10-05T16:15:38.701Z,98332.78
2022-10-05T16:18:44.183Z,98331.44
2022-10-05T16:21:22.966Z,98328.56
2022-10-05T16:24:06.310Z,98333.00
2022-10-05T16:26:47.819Z,98328.56
2022-10-05T16:29:24.038Z,98342.25
2022-10-05T16:31:57.150Z,98331.00
2022-10-05T16:34:37.755Z,98341.28
2022-10-05T16:37:11.703Z,98341.03
2022-10-05T16:39:55.850Z,98333.75
2022-10-05T16:42:46.518Z,98338.97
2022-10-05T16:45:29.071Z,98336.00
2022-10-05T16:48:05.207Z,98342.75
2022-10-05T16:50:40.641Z,98346.72
2022-10-05T16:53:18.165Z,98343.75
2022-10-05T16:55:50.603Z,98338.69
2022-10-05T16:58:25.595Z,98342.09
2022-10-05T17:01:09.260Z,98344.22
2022-10-05T17:03:58.008Z,98344.75
2022-10-05T17:06:55.785Z,98350.34
2022-10-05T17:09:48.693Z,98345.78
2022-10-05T17:12:29.462Z,98341.16
2022-10-05T17:15:10.762Z,98349.13
2022-10-05T17:17:50.179Z,98340.56
2022-10-05T17:20:42.950Z,98339.13
2022-10-05T17:23:29.313Z,98347.13
2022-10-05T17:26:10.571Z,98341.72
2022-10-05T17:28:41.068Z,98341.09
2022-10-05T17:31:19.092Z,98340.75
2022-10-05T17:34:25.037Z,98345.19
2022-10-05T17:36:59.781Z,98344.53
2022-10-05T17:39:50.206Z,98342.22
2022-10-05T17:42:57.584Z,98342.94
2022-10-05T17:45:53.451Z,98343.13
2022-10-05T17:49:06.823Z,98340.81
2022-10-05T17:52:15.873Z,98340.09
2022-10-05T17:55:27.357Z,98344.72
2022-10-05T17:58:24.725Z,98341.84
2022-10-05T18:01:07.138Z,98335.13
2022-10-05T18:03:48.093Z,98340.22
2022-10-05T18:06:41.841Z,98344.25
2022-10-05T18:09:45.211Z,98348.34
2022-10-05T18:12:41.266Z,98352.44
2022-10-05T18:15:45.071Z,98345.44
2022-10-05T18:18:54.664Z,98342.03
2022-10-05T18:21:32.550Z,98345.25
2022-10-05T18:24:18.243Z,98345.47
2022-10-05T18:26:54.471Z,98339.84
2022-10-05T18:29:53.985Z,98344.00
2022-10-05T18:32:31.247Z,98352.38
2022-10-05T18:35:04.093Z,98347.00
2022-10-05T18:37:41.810Z,98349.72
2022-10-05T18:40:30.177Z,98360.75
2022-10-05T18:43:06.490Z,98348.69
2022-10-05T18:45:43.098Z,98350.09
2022-10-05T18:48:21.535Z,98349.41
2022-10-05T18:50:53.662Z,98350.84
2022-10-05T18:53:31.283Z,98358.03
2022-10-05T18:56:05.022Z,98358.97
2022-10-05T18:58:40.947Z,98363.28
2022-10-05T19:01:48.435Z,98358.69
2022-10-05T19:04:27.221Z,98353.31
2022-10-05T19:07:05.937Z,98358.75
2022-10-05T19:09:48.216Z,98354.06
2022-10-05T19:12:25.746Z,98356.53
2022-10-05T19:15:00.217Z,98355.09
2022-10-05T19:17:42.839Z,98354.13
2022-10-05T19:20:20.560Z,98351.81
2022-10-05T19:23:12.155Z,98358.91
2022-10-05T19:25:47.625Z,98361.16
2022-10-05T19:28:26.005Z,98368.50
2022-10-05T19:31:15.408Z,98370.00
2022-10-05T19:33:55.736Z,98363.88
2022-10-05T19:36:38.017Z,98374.00
2022-10-05T19:39:11.966Z,98368.47
2022-10-05T19:42:00.126Z,98371.72
2022-10-05T19:44:42.392Z,98370.63
2022-10-05T19:47:19.495Z,98360.25
2022-10-05T19:49:59.298Z,98368.78
2022-10-05T19:52:39.643Z,98369.09
2022-10-05T19:55:15.503Z,98375.81
2022-10-05T19:57:52.417Z,98374.00
2022-10-05T20:00:26.759Z,98373.63
2022-10-05T20:03:11.969Z,98377.88
2022-10-05T20:05:41.379Z,98377.13
2022-10-05T20:08:18.309Z,98384.44
2022-10-05T20:10:47.954Z,98384.53
2022-10-05T20:13:23.165Z,98390.78
2022-10-05T20:16:39.912Z,98390.44
2022-10-05T20:19:45.595Z,98398.63
2022-10-05T20:22:34.346Z,98393.41
2022-10-05T20:25:07.586Z,98398.78
2022-10-05T20:27:47.400Z,98400.13
2022-10-05T20:30:19.051Z,98397.97
2022-10-05T20:32:49.946Z,98403.41
2022-10-05T20:35:21.882Z,98407.28
2022-10-05T20:37:51.488Z,98400.38
2022-10-05T20:40:22.517Z,98400.13
2022-10-05T20:42:51.732Z,98408.25
2022-10-05T20:45:21.027Z,98415.91
2022-10-05T20:47:51.476Z,98405.19
2022-10-05T20:50:22.283Z,98413.47
2022-10-05T20:52:51.515Z,98408.16
2022-10-05T20:55:22.088Z,98411.94
2022-10-05T20:57:51.520Z,98413.50
2022-10-05T21:00:20.807Z,98414.38
2022-10-05T21:02:49.722Z,98412.97
2022-10-05T21:05:18.982Z,98416.97
2022-10-05T21:07:48.366Z,98417.88
2022-10-05T21:10:17.571Z,98424.34
2022-10-05T21:12:48.315Z,98418.97
2022-10-05T21:15:17.650Z,98419.41
2022-10-05T21:17:49.292Z,98416.38
2022-10-05T21:20:19.096Z,98422.47
2022-10-05T21:22:48.250Z,98423.22
2022-10-05T21:25:17.487Z,98428.56
2022-10-05T21:27:48.740Z,98426.84
2022-10-05T21:30:18.127Z,98422.53
2022-10-05T21:32:47.622Z,98428.47
2022-10-05T21:35:17.445Z,98425.25
2022-10-05T21:37:46.593Z,98422.63
2022-10-05T21:40:16.227Z,98412.50
2022-10-05T21:42:45.412Z,98420.88
2022-10-05T21:45:16.255Z,98416.00
2022-10-05T21:47:46.489Z,98417.16
2022-10-05T21:50:15.762Z,98420.69
2022-10-05T21:52:45.245Z,98427.06
2022-10-05T21:55:14.467Z,98419.47
2022-10-05T21:57:43.890Z,98419.03
2022-10-05T22:00:14.190Z,98422.63
2022-10-05T22:02:45.006Z,98417.72
2022-10-05T22:05:14.180Z,98422.00
2022-10-05T22:07:43.656Z,98419.88
2022-10-05T22:10:12.985Z,98418.22
2022-10-05T22:12:42.723Z,98422.41
2022-10-05T22:15:12.153Z,98425.81
2022-10-05T22:17:46.319Z,98414.47
2022-10-05T22:20:17.149Z,98427.69
2022-10-05T22:22:46.283Z,98425.03
2022-10-05T22:25:16.102Z,98418.94
2022-10-05T22:27:45.881Z,98426.59
2022-10-05T22:30:15.940Z,98422.66
2022-10-05T22:32:46.916Z,98413.28
2022-10-05T22:35:16.682Z,98421.19
2022-10-05T22:37:46.060Z,98420.38
2022-10-05T22:40:15.480Z,98423.19
2022-10-05T22:42:44.689Z,98414.63
2022-10-05T22:45:14.224Z,98425.16
2022-10-05T22:47:45.119Z,98420.44
2022-10-05T22:50:14.526Z,98429.00
2022-10-05T22:52:43.814Z,98430.53
2022-10-05T22:55:13.230Z,98432.19
2022-10-05T22:57:43.163Z,98431.03
2022-10-05T23:00:13.500Z,98430.25
2022-10-05T23:02:45.816Z,98421.25
2022-10-05T23:05:17.152Z,98431.94
2022-10-05T23:07:48.100Z,98430.88
2022-10-05T23:10:19.509Z,98436.44
2022-10-05T23:13:00.523Z,98435.75
2022-10-05T23:15:30.275Z,98427.84
2022-10-05T23:18:01.286Z,98436.13
2022-10-05T23:20:30.727Z,98432.25
2022-10-05T23:23:01.250Z,98437.34
2022-10-05T23:25:30.453Z,98437.75
2022-10-05T23:27:59.843Z,98443.13
2022-10-05T23:30:29.481Z,98443.97
2022-10-05T23:33:00.103Z,98449.69
2022-10-05T23:35:29.422Z,98451.22
2022-10-05T23:37:58.676Z,98454.44
2022-10-05T23:40:28.059Z,98450.88
2022-10-05T23:42:57.276Z,98452.84
2022-10-05T23:45:26.524Z,98458.81
2022-10-05T23:47:55.735Z,98462.22
2022-10-05T23:50:27.583Z,98456.81
2022-10-05T23:52:56.860Z,98454.19
2022-10-05T23:55:25.874Z,98458.34
2022-10-05T23:57:54.923Z,98456.94
